This is the latest recevied weather packets stored in our database for station/object HB9CJD-1. If no packets are shown the sender has not sent any weather packets the latest 10 day(s).
| Time | Temp. | Humidity | Pressure | Rain* | Wind** | Luminosity | Snow |
|---|---|---|---|---|---|---|---|
| 1777995151 | 16.67° C | 61% | 1011.6 hPa | - | - | - | - |
| 1777994548 | 17.78° C | 57% | 1011.4 hPa | - | - | - | - |
| 1777994547 | 17.78° C | 57% | 1011.4 hPa | - | - | - | - |
| 1777990928 | 18.89° C | 59% | 1011.2 hPa | - | - | - | - |
| 1777990928 | 18.89° C | 59% | 1011.2 hPa | - | - | - | - |
| 1777990325 | 17.78° C | 58% | 1011.2 hPa | - | - | - | - |
| 1777990325 | 17.78° C | 58% | 1011.2 hPa | - | - | - | - |
| 1777987912 | 19.44° C | 57% | 1011.2 hPa | - | - | - | - |
| 1777987912 | 19.44° C | 57% | 1011.2 hPa | - | - | - | - |
| 1777987309 | 18.33° C | 55% | 1011.4 hPa | - | - | - | - |
| 1777987308 | 18.33° C | 55% | 1011.4 hPa | - | - | - | - |
| 1777984292 | 17.22° C | 66% | 1011.6 hPa | - | - | - | - |
| 1777984292 | 17.22° C | 66% | 1011.6 hPa | - | - | - | - |
| 1777983086 | 16.11° C | 68% | 1011.7 hPa | - | - | - | - |
| 1777983086 | 16.11° C | 68% | 1011.7 hPa | - | - | - | - |
| 1777980673 | 15° C | 81% | 1011.8 hPa | - | - | - | - |
| 1777980673 | 15° C | 81% | 1011.8 hPa | - | - | - | - |
| 1777978260 | 13.33° C | 87% | 1012.2 hPa | - | - | - | - |
| 1777978260 | 13.33° C | 87% | 1012.2 hPa | - | - | - | - |
| 1777976450 | 13.89° C | 82% | 1012.1 hPa | - | - | - | - |
| 1777976450 | 13.89° C | 82% | 1012.1 hPa | - | - | - | - |
| 1777975847 | 13.33° C | 86% | 1012.1 hPa | - | - | - | - |
| 1777975847 | 13.33° C | 86% | 1012.1 hPa | - | - | - | - |
| 1777975244 | 12.78° C | 87% | 1012.1 hPa | - | - | - | - |
| 1777975243 | 12.78° C | 87% | 1012.1 hPa | - | - | - | - |
* Rain since midnight (hover to see other rain measurements)
** Current wind speed in m/s (hover to see current wind gust speed)